sensor_id;sensor_type;location;lat;lon;timestamp;temperature;humidity
39925;DHT22;25592;49.986;11.618;2023-09-12T00:01:40;22.40;83.00
39925;DHT22;25592;49.986;11.618;2023-09-12T00:04:25;22.50;82.70
39925;DHT22;25592;49.986;11.618;2023-09-12T00:07:11;22.50;82.70
39925;DHT22;25592;49.986;11.618;2023-09-12T00:09:57;22.50;82.90
39925;DHT22;25592;49.986;11.618;2023-09-12T00:12:42;22.30;82.80
39925;DHT22;25592;49.986;11.618;2023-09-12T00:15:28;22.20;83.20
39925;DHT22;25592;49.986;11.618;2023-09-12T00:18:13;22.20;83.60
39925;DHT22;25592;49.986;11.618;2023-09-12T00:20:58;22.20;84.00
39925;DHT22;25592;49.986;11.618;2023-09-12T00:23:45;22.10;84.30
39925;DHT22;25592;49.986;11.618;2023-09-12T00:26:31;22.10;84.70
39925;DHT22;25592;49.986;11.618;2023-09-12T00:29:16;22.10;84.80
39925;DHT22;25592;49.986;11.618;2023-09-12T00:32:02;22.10;84.90
39925;DHT22;25592;49.986;11.618;2023-09-12T00:34:47;22.10;84.60
39925;DHT22;25592;49.986;11.618;2023-09-12T00:37:33;22.10;84.40
39925;DHT22;25592;49.986;11.618;2023-09-12T00:40:18;22.10;84.40
39925;DHT22;25592;49.986;11.618;2023-09-12T00:43:04;22.20;84.20
39925;DHT22;25592;49.986;11.618;2023-09-12T00:45:50;22.30;83.90
39925;DHT22;25592;49.986;11.618;2023-09-12T00:48:37;22.20;83.70
39925;DHT22;25592;49.986;11.618;2023-09-12T00:51:24;22.10;83.50
39925;DHT22;25592;49.986;11.618;2023-09-12T00:54:10;22.00;83.70
39925;DHT22;25592;49.986;11.618;2023-09-12T00:56:56;21.90;83.90
39925;DHT22;25592;49.986;11.618;2023-09-12T00:59:42;21.80;84.00
39925;DHT22;25592;49.986;11.618;2023-09-12T01:02:28;21.80;84.30
39925;DHT22;25592;49.986;11.618;2023-09-12T01:05:15;21.80;84.00
39925;DHT22;25592;49.986;11.618;2023-09-12T01:08:01;21.70;84.60
39925;DHT22;25592;49.986;11.618;2023-09-12T01:10:47;21.70;85.00
39925;DHT22;25592;49.986;11.618;2023-09-12T01:13:35;21.70;84.80
39925;DHT22;25592;49.986;11.618;2023-09-12T01:16:21;21.80;84.30
39925;DHT22;25592;49.986;11.618;2023-09-12T01:19:06;21.80;84.50
39925;DHT22;25592;49.986;11.618;2023-09-12T01:22:02;21.80;84.30
39925;DHT22;25592;49.986;11.618;2023-09-12T01:28:13;21.60;84.40
39925;DHT22;25592;49.986;11.618;2023-09-12T01:31:01;21.60;84.60
39925;DHT22;25592;49.986;11.618;2023-09-12T01:33:48;21.60;84.70
39925;DHT22;25592;49.986;11.618;2023-09-12T01:36:33;21.60;84.80
39925;DHT22;25592;49.986;11.618;2023-09-12T01:39:18;21.60;84.60
39925;DHT22;25592;49.986;11.618;2023-09-12T01:42:05;21.50;84.70
39925;DHT22;25592;49.986;11.618;2023-09-12T01:44:55;21.60;84.70
39925;DHT22;25592;49.986;11.618;2023-09-12T01:47:41;21.60;84.50
39925;DHT22;25592;49.986;11.618;2023-09-12T01:50:28;21.60;84.50
39925;DHT22;25592;49.986;11.618;2023-09-12T01:53:14;21.60;84.20
39925;DHT22;25592;49.986;11.618;2023-09-12T01:56:00;21.50;84.30
39925;DHT22;25592;49.986;11.618;2023-09-12T01:58:45;21.50;84.30
39925;DHT22;25592;49.986;11.618;2023-09-12T02:01:31;21.50;84.30
39925;DHT22;25592;49.986;11.618;2023-09-12T02:04:16;21.50;84.30
39925;DHT22;25592;49.986;11.618;2023-09-12T02:07:02;21.50;84.30
39925;DHT22;25592;49.986;11.618;2023-09-12T02:09:47;21.30;84.60
39925;DHT22;25592;49.986;11.618;2023-09-12T02:12:33;21.30;84.80
39925;DHT22;25592;49.986;11.618;2023-09-12T02:15:18;21.30;84.80
39925;DHT22;25592;49.986;11.618;2023-09-12T02:18:04;21.30;84.70
39925;DHT22;25592;49.986;11.618;2023-09-12T02:20:50;21.30;84.60
39925;DHT22;25592;49.986;11.618;2023-09-12T02:23:35;21.30;84.70
39925;DHT22;25592;49.986;11.618;2023-09-12T02:26:20;21.30;85.30
39925;DHT22;25592;49.986;11.618;2023-09-12T02:29:06;21.30;84.60
39925;DHT22;25592;49.986;11.618;2023-09-12T02:31:53;21.30;84.60
39925;DHT22;25592;49.986;11.618;2023-09-12T02:34:38;21.30;84.60
39925;DHT22;25592;49.986;11.618;2023-09-12T02:37:24;21.20;84.70
39925;DHT22;25592;49.986;11.618;2023-09-12T02:40:10;21.10;84.90
39925;DHT22;25592;49.986;11.618;2023-09-12T02:42:57;21.00;84.90
39925;DHT22;25592;49.986;11.618;2023-09-12T02:45:42;21.00;85.00
39925;DHT22;25592;49.986;11.618;2023-09-12T02:48:28;21.00;85.20
39925;DHT22;25592;49.986;11.618;2023-09-12T02:51:14;20.90;85.10
39925;DHT22;25592;49.986;11.618;2023-09-12T02:53:59;20.90;85.80
39925;DHT22;25592;49.986;11.618;2023-09-12T02:56:45;20.90;85.20
39925;DHT22;25592;49.986;11.618;2023-09-12T02:59:31;20.90;85.20
39925;DHT22;25592;49.986;11.618;2023-09-12T03:02:17;21.00;85.10
39925;DHT22;25592;49.986;11.618;2023-09-12T03:05:02;21.00;85.10
39925;DHT22;25592;49.986;11.618;2023-09-12T03:07:48;20.90;88.00
39925;DHT22;25592;49.986;11.618;2023-09-12T03:10:34;20.80;85.20
39925;DHT22;25592;49.986;11.618;2023-09-12T03:13:19;20.90;85.10
39925;DHT22;25592;49.986;11.618;2023-09-12T03:16:04;21.00;84.80
39925;DHT22;25592;49.986;11.618;2023-09-12T03:18:50;20.90;85.10
39925;DHT22;25592;49.986;11.618;2023-09-12T03:21:36;20.90;85.20
39925;DHT22;25592;49.986;11.618;2023-09-12T03:24:21;20.90;84.80
39925;DHT22;25592;49.986;11.618;2023-09-12T03:27:10;20.90;84.50
39925;DHT22;25592;49.986;11.618;2023-09-12T03:29:55;20.70;85.20
39925;DHT22;25592;49.986;11.618;2023-09-12T03:32:40;20.60;85.30
39925;DHT22;25592;49.986;11.618;2023-09-12T03:35:28;20.60;85.40
39925;DHT22;25592;49.986;11.618;2023-09-12T03:38:13;20.60;85.60
39925;DHT22;25592;49.986;11.618;2023-09-12T03:40:59;20.70;85.30
39925;DHT22;25592;49.986;11.618;2023-09-12T03:43:44;20.70;85.40
39925;DHT22;25592;49.986;11.618;2023-09-12T03:46:30;20.70;85.70
39925;DHT22;25592;49.986;11.618;2023-09-12T03:49:15;20.70;85.80
39925;DHT22;25592;49.986;11.618;2023-09-12T03:52:00;20.70;85.20
39925;DHT22;25592;49.986;11.618;2023-09-12T03:54:46;20.70;85.10
39925;DHT22;25592;49.986;11.618;2023-09-12T03:57:32;20.70;85.10
39925;DHT22;25592;49.986;11.618;2023-09-12T04:00:17;20.70;85.60
39925;DHT22;25592;49.986;11.618;2023-09-12T04:03:03;20.60;85.30
39925;DHT22;25592;49.986;11.618;2023-09-12T04:05:50;20.60;85.40
39925;DHT22;25592;49.986;11.618;2023-09-12T04:08:35;20.50;85.50
39925;DHT22;25592;49.986;11.618;2023-09-12T04:11:21;20.50;85.60
39925;DHT22;25592;49.986;11.618;2023-09-12T04:14:23;20.50;85.60
39925;DHT22;25592;49.986;11.618;2023-09-12T04:17:09;20.50;85.50
39925;DHT22;25592;49.986;11.618;2023-09-12T04:19:55;20.50;85.60
39925;DHT22;25592;49.986;11.618;2023-09-12T04:22:50;20.50;85.60
39925;DHT22;25592;49.986;11.618;2023-09-12T04:25:45;20.50;85.40
39925;DHT22;25592;49.986;11.618;2023-09-12T04:28:31;20.50;85.90
39925;DHT22;25592;49.986;11.618;2023-09-12T04:31:16;20.50;85.90
39925;DHT22;25592;49.986;11.618;2023-09-12T04:34:02;20.50;85.70
39925;DHT22;25592;49.986;11.618;2023-09-12T04:36:47;20.50;85.70
39925;DHT22;25592;49.986;11.618;2023-09-12T04:39:33;20.30;85.50
39925;DHT22;25592;49.986;11.618;2023-09-12T04:42:18;20.30;86.10
39925;DHT22;25592;49.986;11.618;2023-09-12T04:45:04;20.30;86.00
39925;DHT22;25592;49.986;11.618;2023-09-12T04:47:50;20.40;86.20
39925;DHT22;25592;49.986;11.618;2023-09-12T04:50:41;20.40;86.00
39925;DHT22;25592;49.986;11.618;2023-09-12T04:53:27;20.20;88.50
39925;DHT22;25592;49.986;11.618;2023-09-12T04:56:12;20.60;88.50
39925;DHT22;25592;49.986;11.618;2023-09-12T04:58:57;20.90;86.90
39925;DHT22;25592;49.986;11.618;2023-09-12T05:01:43;21.00;86.20
39925;DHT22;25592;49.986;11.618;2023-09-12T05:04:29;21.10;85.60
39925;DHT22;25592;49.986;11.618;2023-09-12T05:07:14;21.10;85.40
39925;DHT22;25592;49.986;11.618;2023-09-12T05:09:59;21.10;85.60
39925;DHT22;25592;49.986;11.618;2023-09-12T05:12:45;21.20;85.70
39925;DHT22;25592;49.986;11.618;2023-09-12T05:15:31;21.20;85.40
39925;DHT22;25592;49.986;11.618;2023-09-12T05:18:16;21.20;85.60
39925;DHT22;25592;49.986;11.618;2023-09-12T05:21:01;21.30;85.40
39925;DHT22;25592;49.986;11.618;2023-09-12T05:23:47;21.40;85.40
39925;DHT22;25592;49.986;11.618;2023-09-12T05:26:32;21.30;85.30
39925;DHT22;25592;49.986;11.618;2023-09-12T05:29:18;21.40;85.60
39925;DHT22;25592;49.986;11.618;2023-09-12T05:32:04;21.30;85.60
39925;DHT22;25592;49.986;11.618;2023-09-12T05:34:50;21.40;85.70
39925;DHT22;25592;49.986;11.618;2023-09-12T05:37:44;21.40;85.80
39925;DHT22;25592;49.986;11.618;2023-09-12T05:40:29;21.40;86.00
39925;DHT22;25592;49.986;11.618;2023-09-12T05:43:18;21.40;86.20
39925;DHT22;25592;49.986;11.618;2023-09-12T05:46:03;21.30;87.00
39925;DHT22;25592;49.986;11.618;2023-09-12T05:48:49;21.10;86.70
39925;DHT22;25592;49.986;11.618;2023-09-12T05:51:34;20.90;87.30
39925;DHT22;25592;49.986;11.618;2023-09-12T05:54:20;20.90;87.50
39925;DHT22;25592;49.986;11.618;2023-09-12T05:57:05;20.90;87.60
39925;DHT22;25592;49.986;11.618;2023-09-12T05:59:51;20.80;87.80
39925;DHT22;25592;49.986;11.618;2023-09-12T06:02:38;20.80;88.70
39925;DHT22;25592;49.986;11.618;2023-09-12T06:05:23;20.70;87.90
39925;DHT22;25592;49.986;11.618;2023-09-12T06:08:09;20.70;88.30
39925;DHT22;25592;49.986;11.618;2023-09-12T06:10:54;20.80;88.40
39925;DHT22;25592;49.986;11.618;2023-09-12T06:13:40;20.80;88.90
39925;DHT22;25592;49.986;11.618;2023-09-12T06:16:25;20.70;88.30
39925;DHT22;25592;49.986;11.618;2023-09-12T06:19:11;20.70;88.80
39925;DHT22;25592;49.986;11.618;2023-09-12T06:21:56;20.70;89.10
39925;DHT22;25592;49.986;11.618;2023-09-12T06:24:44;20.70;89.30
39925;DHT22;25592;49.986;11.618;2023-09-12T06:27:29;20.70;89.30
39925;DHT22;25592;49.986;11.618;2023-09-12T06:30:16;20.70;89.50
39925;DHT22;25592;49.986;11.618;2023-09-12T06:33:03;20.70;89.70
39925;DHT22;25592;49.986;11.618;2023-09-12T06:35:49;20.70;89.60
39925;DHT22;25592;49.986;11.618;2023-09-12T06:38:35;20.70;89.50
39925;DHT22;25592;49.986;11.618;2023-09-12T06:41:20;20.80;89.90
39925;DHT22;25592;49.986;11.618;2023-09-12T06:44:05;20.80;89.50
39925;DHT22;25592;49.986;11.618;2023-09-12T06:46:52;20.80;89.40
39925;DHT22;25592;49.986;11.618;2023-09-12T06:49:37;20.90;89.80
39925;DHT22;25592;49.986;11.618;2023-09-12T06:52:23;21.00;89.30
39925;DHT22;25592;49.986;11.618;2023-09-12T06:55:08;21.00;89.50
39925;DHT22;25592;49.986;11.618;2023-09-12T06:57:54;21.00;89.80
39925;DHT22;25592;49.986;11.618;2023-09-12T07:00:39;21.10;90.00
39925;DHT22;25592;49.986;11.618;2023-09-12T07:03:25;21.20;89.90
39925;DHT22;25592;49.986;11.618;2023-09-12T07:06:10;21.30;89.80
39925;DHT22;25592;49.986;11.618;2023-09-12T07:08:56;21.30;89.80
39925;DHT22;25592;49.986;11.618;2023-09-12T07:11:41;21.30;89.90
39925;DHT22;25592;49.986;11.618;2023-09-12T07:14:27;21.30;90.00
39925;DHT22;25592;49.986;11.618;2023-09-12T07:17:12;21.30;90.20
39925;DHT22;25592;49.986;11.618;2023-09-12T07:19:58;21.30;90.20
39925;DHT22;25592;49.986;11.618;2023-09-12T07:22:43;21.30;90.20
39925;DHT22;25592;49.986;11.618;2023-09-12T07:25:29;21.40;87.80
39925;DHT22;25592;49.986;11.618;2023-09-12T07:28:14;21.50;90.00
39925;DHT22;25592;49.986;11.618;2023-09-12T07:31:00;21.60;90.20
39925;DHT22;25592;49.986;11.618;2023-09-12T07:33:46;21.50;90.60
39925;DHT22;25592;49.986;11.618;2023-09-12T07:36:32;21.50;90.60
39925;DHT22;25592;49.986;11.618;2023-09-12T07:39:17;21.50;90.90
39925;DHT22;25592;49.986;11.618;2023-09-12T07:42:03;21.50;90.90
39925;DHT22;25592;49.986;11.618;2023-09-12T07:44:48;21.70;91.00
39925;DHT22;25592;49.986;11.618;2023-09-12T07:47:34;21.50;91.30
39925;DHT22;25592;49.986;11.618;2023-09-12T07:50:19;21.70;91.30
39925;DHT22;25592;49.986;11.618;2023-09-12T07:53:05;21.80;91.20
39925;DHT22;25592;49.986;11.618;2023-09-12T07:55:51;21.70;91.40
39925;DHT22;25592;49.986;11.618;2023-09-12T07:58:36;21.90;91.30
39925;DHT22;25592;49.986;11.618;2023-09-12T08:01:22;22.00;91.10
39925;DHT22;25592;49.986;11.618;2023-09-12T08:04:07;22.30;91.00
39925;DHT22;25592;49.986;11.618;2023-09-12T08:06:53;22.50;91.20
39925;DHT22;25592;49.986;11.618;2023-09-12T08:09:54;22.80;91.10
39925;DHT22;25592;49.986;11.618;2023-09-12T08:12:40;23.00;91.20
39925;DHT22;25592;49.986;11.618;2023-09-12T08:15:27;23.30;90.90
39925;DHT22;25592;49.986;11.618;2023-09-12T08:18:12;23.40;91.40
39925;DHT22;25592;49.986;11.618;2023-09-12T08:20:58;23.60;91.00
39925;DHT22;25592;49.986;11.618;2023-09-12T08:23:43;23.70;90.80
39925;DHT22;25592;49.986;11.618;2023-09-12T08:26:29;23.80;90.90
39925;DHT22;25592;49.986;11.618;2023-09-12T08:29:17;23.90;91.30
39925;DHT22;25592;49.986;11.618;2023-09-12T08:32:02;24.10;90.60
39925;DHT22;25592;49.986;11.618;2023-09-12T08:34:48;24.30;90.80
39925;DHT22;25592;49.986;11.618;2023-09-12T08:37:33;24.50;90.90
39925;DHT22;25592;49.986;11.618;2023-09-12T08:40:19;24.80;90.40
39925;DHT22;25592;49.986;11.618;2023-09-12T08:43:05;25.00;90.60
39925;DHT22;25592;49.986;11.618;2023-09-12T08:45:51;25.00;90.30
39925;DHT22;25592;49.986;11.618;2023-09-12T08:48:37;25.00;90.30
39925;DHT22;25592;49.986;11.618;2023-09-12T08:51:23;25.30;90.50
39925;DHT22;25592;49.986;11.618;2023-09-12T08:54:09;25.50;90.00
39925;DHT22;25592;49.986;11.618;2023-09-12T08:56:54;25.70;90.50
39925;DHT22;25592;49.986;11.618;2023-09-12T08:59:41;25.80;90.50
39925;DHT22;25592;49.986;11.618;2023-09-12T09:02:29;26.00;89.20
39925;DHT22;25592;49.986;11.618;2023-09-12T09:05:15;26.20;89.50
39925;DHT22;25592;49.986;11.618;2023-09-12T09:08:02;26.20;89.50
39925;DHT22;25592;49.986;11.618;2023-09-12T09:10:58;26.20;88.60
39925;DHT22;25592;49.986;11.618;2023-09-12T09:13:44;26.20;88.60
39925;DHT22;25592;49.986;11.618;2023-09-12T09:16:30;26.50;87.70
39925;DHT22;25592;49.986;11.618;2023-09-12T09:19:16;26.30;88.90
39925;DHT22;25592;49.986;11.618;2023-09-12T09:22:07;26.70;87.60
39925;DHT22;25592;49.986;11.618;2023-09-12T09:25:09;27.00;88.10
39925;DHT22;25592;49.986;11.618;2023-09-12T09:27:56;27.10;87.50
39925;DHT22;25592;49.986;11.618;2023-09-12T09:30:44;27.30;87.30
39925;DHT22;25592;49.986;11.618;2023-09-12T09:33:35;27.60;85.00
39925;DHT22;25592;49.986;11.618;2023-09-12T09:36:20;27.70;85.50
39925;DHT22;25592;49.986;11.618;2023-09-12T09:39:06;27.70;84.00
39925;DHT22;25592;49.986;11.618;2023-09-12T09:41:53;27.90;84.50
39925;DHT22;25592;49.986;11.618;2023-09-12T09:44:38;28.00;83.20
39925;DHT22;25592;49.986;11.618;2023-09-12T09:47:24;28.30;83.90
39925;DHT22;25592;49.986;11.618;2023-09-12T09:50:14;28.60;83.00
39925;DHT22;25592;49.986;11.618;2023-09-12T09:53:00;28.70;81.50
39925;DHT22;25592;49.986;11.618;2023-09-12T09:55:46;28.90;81.60
39925;DHT22;25592;49.986;11.618;2023-09-12T09:58:32;28.90;81.50
39925;DHT22;25592;49.986;11.618;2023-09-12T10:01:20;29.00;79.50
39925;DHT22;25592;49.986;11.618;2023-09-12T10:04:05;28.60;79.00
39925;DHT22;25592;49.986;11.618;2023-09-12T10:06:52;28.40;79.80
39925;DHT22;25592;49.986;11.618;2023-09-12T10:09:40;28.70;81.00
39925;DHT22;25592;49.986;11.618;2023-09-12T10:12:29;29.00;79.40
39925;DHT22;25592;49.986;11.618;2023-09-12T10:15:18;29.10;78.70
39925;DHT22;25592;49.986;11.618;2023-09-12T10:18:08;29.40;78.80
39925;DHT22;25592;49.986;11.618;2023-09-12T10:21:04;29.70;78.50
39925;DHT22;25592;49.986;11.618;2023-09-12T10:23:52;29.90;77.60
39925;DHT22;25592;49.986;11.618;2023-09-12T10:26:39;29.90;77.00
39925;DHT22;25592;49.986;11.618;2023-09-12T10:29:28;30.10;77.40
39925;DHT22;25592;49.986;11.618;2023-09-12T10:32:14;30.30;76.80
39925;DHT22;25592;49.986;11.618;2023-09-12T10:35:02;30.30;75.10
39925;DHT22;25592;49.986;11.618;2023-09-12T10:37:49;30.20;75.60
39925;DHT22;25592;49.986;11.618;2023-09-12T10:40:36;30.20;76.10
39925;DHT22;25592;49.986;11.618;2023-09-12T10:43:28;29.90;75.90
39925;DHT22;25592;49.986;11.618;2023-09-12T10:46:14;30.40;74.80
39925;DHT22;25592;49.986;11.618;2023-09-12T10:48:59;31.10;74.20
39925;DHT22;25592;49.986;11.618;2023-09-12T10:51:46;31.60;75.40
39925;DHT22;25592;49.986;11.618;2023-09-12T10:54:37;31.90;73.20
39925;DHT22;25592;49.986;11.618;2023-09-12T10:57:23;32.20;73.30
39925;DHT22;25592;49.986;11.618;2023-09-12T11:00:12;32.20;71.60
39925;DHT22;25592;49.986;11.618;2023-09-12T11:02:58;32.00;71.90
39925;DHT22;25592;49.986;11.618;2023-09-12T11:05:53;32.10;72.30
39925;DHT22;25592;49.986;11.618;2023-09-12T11:08:40;31.80;71.80
39925;DHT22;25592;49.986;11.618;2023-09-12T11:11:25;31.50;70.80
39925;DHT22;25592;49.986;11.618;2023-09-12T11:14:11;31.50;69.80
39925;DHT22;25592;49.986;11.618;2023-09-12T11:19:53;31.10;69.70
39925;DHT22;25592;49.986;11.618;2023-09-12T11:22:44;31.40;67.60
39925;DHT22;25592;49.986;11.618;2023-09-12T11:25:29;31.60;69.00
39925;DHT22;25592;49.986;11.618;2023-09-12T11:28:19;31.80;69.10
39925;DHT22;25592;49.986;11.618;2023-09-12T11:31:04;31.90;68.40
39925;DHT22;25592;49.986;11.618;2023-09-12T11:33:51;32.00;69.40
39925;DHT22;25592;49.986;11.618;2023-09-12T11:36:43;32.20;69.00
39925;DHT22;25592;49.986;11.618;2023-09-12T11:39:38;32.30;70.20
39925;DHT22;25592;49.986;11.618;2023-09-12T11:42:24;32.40;70.60
39925;DHT22;25592;49.986;11.618;2023-09-12T11:45:13;32.30;70.40
39925;DHT22;25592;49.986;11.618;2023-09-12T11:47:58;31.90;70.30
39925;DHT22;25592;49.986;11.618;2023-09-12T11:50:52;32.20;71.30
39925;DHT22;25592;49.986;11.618;2023-09-12T11:53:38;32.40;70.90
39925;DHT22;25592;49.986;11.618;2023-09-12T11:56:23;32.60;70.50
39925;DHT22;25592;49.986;11.618;2023-09-12T11:59:10;32.50;70.00
39925;DHT22;25592;49.986;11.618;2023-09-12T12:01:58;32.50;70.30
39925;DHT22;25592;49.986;11.618;2023-09-12T12:04:44;32.60;70.90
39925;DHT22;25592;49.986;11.618;2023-09-12T12:07:30;32.70;70.70
39925;DHT22;25592;49.986;11.618;2023-09-12T12:10:17;32.60;71.10
39925;DHT22;25592;49.986;11.618;2023-09-12T12:13:03;32.60;70.50
39925;DHT22;25592;49.986;11.618;2023-09-12T12:15:48;32.80;70.70
39925;DHT22;25592;49.986;11.618;2023-09-12T12:18:34;32.80;70.40
39925;DHT22;25592;49.986;11.618;2023-09-12T12:21:20;32.70;70.40
39925;DHT22;25592;49.986;11.618;2023-09-12T12:24:09;32.80;69.90
39925;DHT22;25592;49.986;11.618;2023-09-12T12:27:00;33.00;70.30
39925;DHT22;25592;49.986;11.618;2023-09-12T12:29:45;32.90;71.00
39925;DHT22;25592;49.986;11.618;2023-09-12T12:32:31;32.90;70.40
39925;DHT22;25592;49.986;11.618;2023-09-12T12:35:20;32.90;70.60
39925;DHT22;25592;49.986;11.618;2023-09-12T12:38:25;32.80;70.30
39925;DHT22;25592;49.986;11.618;2023-09-12T12:41:11;32.70;70.10
39925;DHT22;25592;49.986;11.618;2023-09-12T12:43:58;33.10;70.40
39925;DHT22;25592;49.986;11.618;2023-09-12T12:46:49;33.20;70.40
39925;DHT22;25592;49.986;11.618;2023-09-12T12:49:38;33.40;69.40
39925;DHT22;25592;49.986;11.618;2023-09-12T12:52:28;33.40;69.20
39925;DHT22;25592;49.986;11.618;2023-09-12T12:55:15;33.50;69.30
39925;DHT22;25592;49.986;11.618;2023-09-12T12:58:03;33.60;69.20
39925;DHT22;25592;49.986;11.618;2023-09-12T13:00:49;33.40;69.60
39925;DHT22;25592;49.986;11.618;2023-09-12T13:03:38;33.40;68.50
39925;DHT22;25592;49.986;11.618;2023-09-12T13:06:23;33.50;69.10
39925;DHT22;25592;49.986;11.618;2023-09-12T13:09:11;33.80;69.60
39925;DHT22;25592;49.986;11.618;2023-09-12T13:11:57;33.90;70.10
39925;DHT22;25592;49.986;11.618;2023-09-12T13:14:43;34.10;69.60
39925;DHT22;25592;49.986;11.618;2023-09-12T13:17:29;34.00;69.10
39925;DHT22;25592;49.986;11.618;2023-09-12T13:20:14;34.10;68.80
39925;DHT22;25592;49.986;11.618;2023-09-12T13:23:00;34.10;68.90
39925;DHT22;25592;49.986;11.618;2023-09-12T13:25:45;34.10;69.30
39925;DHT22;25592;49.986;11.618;2023-09-12T13:28:31;34.00;69.00
39925;DHT22;25592;49.986;11.618;2023-09-12T13:31:16;33.80;69.10
39925;DHT22;25592;49.986;11.618;2023-09-12T13:34:02;33.60;68.80
39925;DHT22;25592;49.986;11.618;2023-09-12T13:36:48;33.70;70.20
39925;DHT22;25592;49.986;11.618;2023-09-12T13:39:50;33.70;70.20
39925;DHT22;25592;49.986;11.618;2023-09-12T13:42:35;34.00;70.20
39925;DHT22;25592;49.986;11.618;2023-09-12T13:45:21;34.00;69.00
39925;DHT22;25592;49.986;11.618;2023-09-12T13:48:07;34.10;68.90
39925;DHT22;25592;49.986;11.618;2023-09-12T13:50:53;34.10;68.90
39925;DHT22;25592;49.986;11.618;2023-09-12T13:53:39;34.30;68.10
39925;DHT22;25592;49.986;11.618;2023-09-12T13:56:25;34.00;67.60
39925;DHT22;25592;49.986;11.618;2023-09-12T13:59:11;34.20;68.10
39925;DHT22;25592;49.986;11.618;2023-09-12T14:01:57;34.30;67.80
39925;DHT22;25592;49.986;11.618;2023-09-12T14:04:42;34.10;68.00
39925;DHT22;25592;49.986;11.618;2023-09-12T14:07:28;34.20;68.10
39925;DHT22;25592;49.986;11.618;2023-09-12T14:10:15;34.10;67.50
39925;DHT22;25592;49.986;11.618;2023-09-12T14:13:15;34.10;67.70
39925;DHT22;25592;49.986;11.618;2023-09-12T14:16:06;34.40;67.30
39925;DHT22;25592;49.986;11.618;2023-09-12T14:18:52;34.60;67.10
39925;DHT22;25592;49.986;11.618;2023-09-12T14:21:37;34.70;68.00
39925;DHT22;25592;49.986;11.618;2023-09-12T14:24:23;34.40;67.40
39925;DHT22;25592;49.986;11.618;2023-09-12T14:27:10;34.20;68.20
39925;DHT22;25592;49.986;11.618;2023-09-12T14:30:11;34.30;67.40
39925;DHT22;25592;49.986;11.618;2023-09-12T14:32:59;34.30;67.50
39925;DHT22;25592;49.986;11.618;2023-09-12T14:35:45;34.40;67.60
39925;DHT22;25592;49.986;11.618;2023-09-12T14:38:30;34.60;67.50
39925;DHT22;25592;49.986;11.618;2023-09-12T14:41:16;34.70;67.30
39925;DHT22;25592;49.986;11.618;2023-09-12T14:44:01;34.80;68.00
39925;DHT22;25592;49.986;11.618;2023-09-12T14:46:47;34.60;66.90
39925;DHT22;25592;49.986;11.618;2023-09-12T14:49:32;34.80;67.50
39925;DHT22;25592;49.986;11.618;2023-09-12T14:52:31;34.80;66.00
39925;DHT22;25592;49.986;11.618;2023-09-12T14:55:16;34.70;65.90
39925;DHT22;25592;49.986;11.618;2023-09-12T14:58:03;34.40;66.30
39925;DHT22;25592;49.986;11.618;2023-09-12T15:00:48;34.40;66.50
39925;DHT22;25592;49.986;11.618;2023-09-12T15:03:34;34.30;66.40
39925;DHT22;25592;49.986;11.618;2023-09-12T15:06:22;34.30;66.50
39925;DHT22;25592;49.986;11.618;2023-09-12T15:09:08;34.40;66.10
39925;DHT22;25592;49.986;11.618;2023-09-12T15:11:53;34.50;67.10
39925;DHT22;25592;49.986;11.618;2023-09-12T15:14:39;34.40;65.20
39925;DHT22;25592;49.986;11.618;2023-09-12T15:17:24;34.50;66.30
39925;DHT22;25592;49.986;11.618;2023-09-12T15:20:10;34.50;65.00
39925;DHT22;25592;49.986;11.618;2023-09-12T15:22:56;34.30;64.60
39925;DHT22;25592;49.986;11.618;2023-09-12T15:25:41;34.50;64.60
39925;DHT22;25592;49.986;11.618;2023-09-12T15:28:27;34.50;65.80
39925;DHT22;25592;49.986;11.618;2023-09-12T15:31:13;34.60;64.30
39925;DHT22;25592;49.986;11.618;2023-09-12T15:33:58;34.70;63.70
39925;DHT22;25592;49.986;11.618;2023-09-12T15:36:45;34.60;63.70
39925;DHT22;25592;49.986;11.618;2023-09-12T15:39:31;34.50;64.30
39925;DHT22;25592;49.986;11.618;2023-09-12T15:42:16;34.00;64.50
39925;DHT22;25592;49.986;11.618;2023-09-12T15:45:20;34.00;66.00
39925;DHT22;25592;49.986;11.618;2023-09-12T15:48:06;34.00;65.80
39925;DHT22;25592;49.986;11.618;2023-09-12T15:50:52;34.00;64.00
39925;DHT22;25592;49.986;11.618;2023-09-12T15:53:37;33.70;64.60
39925;DHT22;25592;49.986;11.618;2023-09-12T15:56:23;33.30;65.00
39925;DHT22;25592;49.986;11.618;2023-09-12T15:59:09;33.30;65.30
39925;DHT22;25592;49.986;11.618;2023-09-12T16:01:54;33.50;65.40
39925;DHT22;25592;49.986;11.618;2023-09-12T16:04:40;33.40;67.50
39925;DHT22;25592;49.986;11.618;2023-09-12T16:07:25;33.30;66.80
39925;DHT22;25592;49.986;11.618;2023-09-12T16:10:11;33.40;66.30
39925;DHT22;25592;49.986;11.618;2023-09-12T16:12:57;33.30;67.00
39925;DHT22;25592;49.986;11.618;2023-09-12T16:15:43;33.30;67.10
39925;DHT22;25592;49.986;11.618;2023-09-12T16:18:28;33.30;66.90
39925;DHT22;25592;49.986;11.618;2023-09-12T16:21:14;33.10;66.70
39925;DHT22;25592;49.986;11.618;2023-09-12T16:23:59;33.00;66.00
39925;DHT22;25592;49.986;11.618;2023-09-12T16:26:44;32.90;66.70
39925;DHT22;25592;49.986;11.618;2023-09-12T16:29:30;32.90;66.90
39925;DHT22;25592;49.986;11.618;2023-09-12T16:32:15;33.00;68.00
39925;DHT22;25592;49.986;11.618;2023-09-12T16:35:01;32.90;68.40
39925;DHT22;25592;49.986;11.618;2023-09-12T16:37:47;32.90;68.80
39925;DHT22;25592;49.986;11.618;2023-09-12T16:40:32;32.80;69.50
39925;DHT22;25592;49.986;11.618;2023-09-12T16:43:18;32.80;70.20
39925;DHT22;25592;49.986;11.618;2023-09-12T16:46:03;32.70;70.70
39925;DHT22;25592;49.986;11.618;2023-09-12T16:48:49;32.80;71.80
39925;DHT22;25592;49.986;11.618;2023-09-12T16:51:34;32.70;72.10
39925;DHT22;25592;49.986;11.618;2023-09-12T16:54:20;32.60;72.40
39925;DHT22;25592;49.986;11.618;2023-09-12T16:57:05;32.50;72.20
39925;DHT22;25592;49.986;11.618;2023-09-12T16:59:51;32.30;72.10
39925;DHT22;25592;49.986;11.618;2023-09-12T17:02:38;32.20;71.70
39925;DHT22;25592;49.986;11.618;2023-09-12T17:05:23;32.10;71.40
39925;DHT22;25592;49.986;11.618;2023-09-12T17:08:11;31.80;71.30
39925;DHT22;25592;49.986;11.618;2023-09-12T17:10:57;31.60;71.60
39925;DHT22;25592;49.986;11.618;2023-09-12T17:13:42;31.30;71.60
39925;DHT22;25592;49.986;11.618;2023-09-12T17:16:28;31.20;71.50
39925;DHT22;25592;49.986;11.618;2023-09-12T17:19:14;31.10;72.50
39925;DHT22;25592;49.986;11.618;2023-09-12T17:21:59;30.90;72.60